Terminal Aerodrome Forecast
Issued by NWS Duluth, MN

Home | Current Version | Previous Version | Text Only | Print | Product List | Glossary On
Versions: 1 2 3 4 5 6 7 8 9 10 11 12 13 14 15
100
FTUS43 KDLH 270536
TAFINL
TAF
KINL 270536Z 2706/2806 VRB03KT P6SM VCSH BKN060
      TEMPO 2706/2709 6SM -RASN BKN035 OVC050
     FM271200 02010KT P6SM VCSH BKN025
     FM271600 02011KT P6SM VCSH BKN020
     FM280000 02004KT P6SM BKN050=

USA.gov is the U.S. government's official web portal to all federal, state and local government web resources and services.